CheckWX is a tool to help pilots better visualize weather data.  It is not intended as a substitute for an official pre-flight weather briefing.

21:35:55 UTC

SBEG TAF
Eduardo Gomes International Airport
Manaus, Brazil
TAF SBEG 032100Z 0400/0424 05007KT 8000 BKN017 FEW025TCU TN25/0409Z TX34/0419Z BECMG 0401/0402 08005KT 9999 SCT015 BECMG 0404/0406 01005KT PROB40 0408/0412 5000 BR BKN010 BECMG 0412/0414 04010KT BKN020 TEMPO 0417/0424 33007KT BKN017 FEW027TCU RMK PGB

Apr-4@
00:00 UTC

Apr-4 @ 00:00 UTC

Apr-4@
01:00 UTC

Apr-4 @ 01:00 UTC

TAF SBEG 032100Z 0400/0424 05007KT 8000 BKN017 FEW025TCU TN25/0409Z TX34/0419Z

Expired

Wind
  • 050° at 7 KTS
Cloud Levels
  • Broken at 1,700' AGL
  • Few at 2,500' AGL

Apr-4@
01:00 UTC

Apr-4 @ 01:00 UTC

Apr-4@
04:00 UTC

Apr-4 @ 04:00 UTC

BECMG 0401/0402 08005KT 9999 SCT015

Expired

Wind
  • 080° at 5 KTS
Cloud Levels
  • Scattered at 1,500' AGL

Apr-4@
04:00 UTC

Apr-4 @ 04:00 UTC

Apr-4@
12:00 UTC

Apr-4 @ 12:00 UTC

BECMG 0404/0406 01005KT

Expired

Wind
  • 010° at 5 KTS
Cloud Levels
  • Scattered at 1,500' AGL

Apr-4@
08:00 UTC

Apr-4 @ 08:00 UTC

Apr-4@
12:00 UTC

Apr-4 @ 12:00 UTC

PROB40 0408/0412 5000 BR BKN010

Expired

Conditions
Mist
Cloud Levels
  • Broken at 1,000' AGL

Apr-4@
12:00 UTC

Apr-4 @ 12:00 UTC

Apr-5@
00:00 UTC

Apr-5 @ 00:00 UTC

BECMG 0412/0414 04010KT BKN020

Becoming

Becoming Conditions expected by Sat, Apr 4, 2020 @ 14:00 UTC

Wind
  • 040° at 10 KTS
Cloud Levels
  • Broken at 2,000' AGL

Apr-4@
17:00 UTC

Apr-4 @ 17:00 UTC

Apr-5@
00:00 UTC

Apr-5 @ 00:00 UTC

TEMPO 0417/0424 33007KT BKN017 FEW027TCU RMK PGB

Temporary

Temporary Changes expected for less than half the time period

Wind
  • 330° at 7 KTS
Cloud Levels
  • Broken at 1,700' AGL
  • Few at 2,700' AGL